AFR758 LFPG-TFFR
Flight info
| Callsign | AFR758 |
|---|---|
| Flight time | 4h 9m |
| Altitude | 34000 |
| Route | LGL UN491 UPALO/N0479F330 UN585 FEJAC DCT BADUR DCT REGHI/M083F340 DCT ETIKI DCT 46N020W 41N030W/M083F360 38N035W 35N040W 29N050W DCT BNJEE/N0477F360 DCT BOSET BOSET2A |
| Aircraft | B77W/H-SDE1E2E3FGHIJ2J3J4J5M1RWXY/LB1D1 |
Departure
| Time | 2026-04-22 16:00 |
|---|---|
| Airport | Charles de Gaulle International Airport (LFPG) |
Arrival
| Time | 2026-04-22 20:10 |
|---|---|
| Airport | Maryse Condé International Airport (TFFR) |
| Time | Latitude | Longitude | Altitude | Speed | Heading |
|---|---|---|---|---|---|
| 2026-04-22 15:11 | 49.00692 | 2.58572 | 358 ft | 0 kts | 266° |
| 2026-04-22 15:45 | 49.00692 | 2.58585 | 358 ft | 4 kts | 268° |
| 2026-04-22 15:45 | 49.00692 | 2.58625 | 362 ft | 4 kts | 266° |
| 2026-04-22 15:45 | 49.00696 | 2.58652 | 367 ft | 2 kts | 234° |
| 2026-04-22 15:45 | 49.00711 | 2.58678 | 367 ft | 4 kts | 211° |
| 2026-04-22 15:46 | 49.00733 | 2.58692 | 366 ft | 4 kts | 185° |
| 2026-04-22 15:46 | 49.00757 | 2.58692 | 366 ft | 1 kts | 175° |
| 2026-04-22 15:46 | 49.00762 | 2.58691 | 365 ft | 0 kts | 175° |
| 2026-04-22 15:50 | 49.00758 | 2.58692 | 365 ft | 3 kts | 175° |
| 2026-04-22 15:50 | 49.00734 | 2.58695 | 366 ft | 3 kts | 175° |
| 2026-04-22 15:51 | 49.00706 | 2.58698 | 366 ft | 7 kts | 175° |
| 2026-04-22 15:51 | 49.00656 | 2.58705 | 362 ft | 7 kts | 174° |
| 2026-04-22 15:51 | 49.00607 | 2.58712 | 367 ft | 7 kts | 174° |
| 2026-04-22 15:51 | 49.00553 | 2.58717 | 364 ft | 10 kts | 177° |
| 2026-04-22 15:52 | 49.00461 | 2.58727 | 367 ft | 14 kts | 175° |
| 2026-04-22 15:52 | 49.00363 | 2.58738 | 363 ft | 14 kts | 176° |
| 2026-04-22 15:52 | 49.00276 | 2.58749 | 359 ft | 12 kts | 175° |
| 2026-04-22 15:52 | 49.00194 | 2.58760 | 362 ft | 12 kts | 174° |
| 2026-04-22 15:53 | 49.00110 | 2.58769 | 360 ft | 12 kts | 181° |
| 2026-04-22 15:53 | 49.00027 | 2.58748 | 367 ft | 12 kts | 191° |
| 2026-04-22 15:53 | 48.99951 | 2.58705 | 368 ft | 12 kts | 236° |
| 2026-04-22 15:53 | 48.99938 | 2.58577 | 359 ft | 12 kts | 265° |
| 2026-04-22 15:54 | 48.99931 | 2.58447 | 359 ft | 12 kts | 266° |
| 2026-04-22 15:54 | 48.99923 | 2.58319 | 361 ft | 12 kts | 264° |
| 2026-04-22 15:54 | 48.99916 | 2.58190 | 365 ft | 12 kts | 265° |
| 2026-04-22 15:54 | 48.99908 | 2.58062 | 362 ft | 12 kts | 266° |
| 2026-04-22 15:55 | 48.99904 | 2.57977 | 363 ft | 12 kts | 266° |
| 2026-04-22 15:55 | 48.99897 | 2.57829 | 359 ft | 18 kts | 265° |
| 2026-04-22 15:55 | 48.99887 | 2.57639 | 367 ft | 18 kts | 265° |
| 2026-04-22 15:55 | 48.99876 | 2.57450 | 364 ft | 18 kts | 266° |
| 2026-04-22 15:56 | 48.99868 | 2.57274 | 364 ft | 15 kts | 265° |
| 2026-04-22 15:56 | 48.99859 | 2.57118 | 365 ft | 15 kts | 265° |
| 2026-04-22 15:56 | 48.99850 | 2.56951 | 364 ft | 17 kts | 265° |
| 2026-04-22 15:56 | 48.99841 | 2.56774 | 361 ft | 17 kts | 265° |
| 2026-04-22 15:57 | 48.99831 | 2.56598 | 359 ft | 17 kts | 266° |
| 2026-04-22 15:57 | 48.99822 | 2.56423 | 359 ft | 17 kts | 265° |
| 2026-04-22 15:57 | 48.99813 | 2.56247 | 365 ft | 17 kts | 265° |
| 2026-04-22 15:57 | 48.99804 | 2.56071 | 365 ft | 17 kts | 265° |
| 2026-04-22 15:58 | 48.99791 | 2.55896 | 363 ft | 17 kts | 253° |
| 2026-04-22 15:58 | 48.99755 | 2.55728 | 364 ft | 17 kts | 259° |
| 2026-04-22 15:58 | 48.99744 | 2.55561 | 359 ft | 10 kts | 266° |
| 2026-04-22 15:58 | 48.99729 | 2.55461 | 361 ft | 10 kts | 234° |
| 2026-04-22 15:59 | 48.99665 | 2.55461 | 366 ft | 10 kts | 146° |
| 2026-04-22 15:59 | 48.99602 | 2.55521 | 363 ft | 11 kts | 159° |
| 2026-04-22 15:59 | 48.99587 | 2.55558 | 364 ft | 4 kts | 95° |
| 2026-04-22 15:59 | 48.99591 | 2.55667 | 362 ft | 22 kts | 85° |
| 2026-04-22 16:00 | 48.99621 | 2.56226 | 364 ft | 86 kts | 85° |
| 2026-04-22 16:00 | 48.99685 | 2.57429 | 359 ft | 143 kts | 85° |
| 2026-04-22 16:00 | 48.99789 | 2.59161 | 499 ft | 171 kts | 83° |
| 2026-04-22 16:00 | 48.99886 | 2.60942 | 1094 ft | 173 kts | 84° |
| 2026-04-22 16:01 | 48.99988 | 2.62753 | 1818 ft | 166 kts | 84° |
| 2026-04-22 16:01 | 49.00077 | 2.64512 | 2530 ft | 169 kts | 85° |
| 2026-04-22 16:01 | 49.00169 | 2.66305 | 3199 ft | 170 kts | 84° |
| 2026-04-22 16:01 | 49.00260 | 2.68106 | 3827 ft | 174 kts | 85° |
| 2026-04-22 16:02 | 49.00362 | 2.70082 | 4034 ft | 201 kts | 86° |
| 2026-04-22 16:02 | 49.00475 | 2.72329 | 4309 ft | 225 kts | 85° |
| 2026-04-22 16:02 | 49.00601 | 2.74785 | 4967 ft | 235 kts | 88° |
| 2026-04-22 16:02 | 49.00375 | 2.77224 | 5667 ft | 238 kts | 116° |
| 2026-04-22 16:03 | 48.99314 | 2.79197 | 6461 ft | 247 kts | 139° |
| 2026-04-22 16:03 | 48.97765 | 2.80449 | 7210 ft | 259 kts | 160° |
| 2026-04-22 16:03 | 48.95945 | 2.80682 | 7975 ft | 271 kts | 185° |
| 2026-04-22 16:03 | 48.94159 | 2.79649 | 8569 ft | 289 kts | 213° |
| 2026-04-22 16:04 | 48.92749 | 2.77396 | 9268 ft | 300 kts | 234° |
| 2026-04-22 16:04 | 48.91721 | 2.74626 | 10142 ft | 301 kts | 241° |
| 2026-04-22 16:04 | 48.90803 | 2.71747 | 10902 ft | 305 kts | 243° |
| 2026-04-22 16:04 | 48.89872 | 2.68771 | 11366 ft | 321 kts | 243° |
| 2026-04-22 16:05 | 48.88867 | 2.65616 | 11594 ft | 344 kts | 243° |
| 2026-04-22 16:05 | 48.87770 | 2.62241 | 11795 ft | 368 kts | 242° |
| 2026-04-22 16:05 | 48.86592 | 2.58679 | 12307 ft | 380 kts | 242° |
| 2026-04-22 16:05 | 48.85412 | 2.55148 | 13500 ft | 372 kts | 243° |
| 2026-04-22 16:06 | 48.84451 | 2.51459 | 14121 ft | 383 kts | 255° |
| 2026-04-22 16:06 | 48.84027 | 2.47432 | 14732 ft | 386 kts | 269° |
| 2026-04-22 16:06 | 48.84060 | 2.43372 | 15570 ft | 387 kts | 274° |
| 2026-04-22 16:06 | 48.84128 | 2.39224 | 16143 ft | 396 kts | 274° |
| 2026-04-22 16:07 | 48.84188 | 2.35029 | 16947 ft | 400 kts | 273° |
| 2026-04-22 16:07 | 48.84240 | 2.30784 | 17699 ft | 404 kts | 274° |
| 2026-04-22 16:07 | 48.84285 | 2.26501 | 18510 ft | 407 kts | 274° |
| 2026-04-22 16:07 | 48.84329 | 2.22228 | 19130 ft | 412 kts | 274° |
| 2026-04-22 16:08 | 48.84368 | 2.17882 | 19865 ft | 412 kts | 274° |
| 2026-04-22 16:08 | 48.84403 | 2.13521 | 20595 ft | 414 kts | 274° |
| 2026-04-22 16:08 | 48.84437 | 2.09132 | 21313 ft | 416 kts | 274° |
| 2026-04-22 16:08 | 48.84469 | 2.04722 | 21946 ft | 419 kts | 274° |
| 2026-04-22 16:09 | 48.84501 | 2.00282 | 22595 ft | 421 kts | 275° |
| 2026-04-22 16:09 | 48.84530 | 1.95818 | 23236 ft | 424 kts | 275° |
| 2026-04-22 16:09 | 48.84557 | 1.91326 | 23858 ft | 427 kts | 275° |
| 2026-04-22 16:09 | 48.84581 | 1.86808 | 24391 ft | 429 kts | 275° |
| 2026-04-22 16:10 | 48.84605 | 1.82268 | 24918 ft | 431 kts | 274° |
| 2026-04-22 16:10 | 48.84627 | 1.77705 | 25459 ft | 432 kts | 274° |
| 2026-04-22 16:10 | 48.84647 | 1.73189 | 26000 ft | 434 kts | 274° |
| 2026-04-22 16:10 | 48.84666 | 1.68541 | 26526 ft | 436 kts | 274° |
| 2026-04-22 16:11 | 48.84683 | 1.63998 | 27002 ft | 438 kts | 274° |
| 2026-04-22 16:11 | 48.84699 | 1.59357 | 27481 ft | 440 kts | 273° |
| 2026-04-22 16:11 | 48.84712 | 1.54699 | 27953 ft | 442 kts | 273° |
| 2026-04-22 16:11 | 48.84724 | 1.50029 | 28395 ft | 443 kts | 273° |
| 2026-04-22 16:12 | 48.84734 | 1.45333 | 28821 ft | 445 kts | 273° |
| 2026-04-22 16:12 | 48.84741 | 1.40626 | 29231 ft | 447 kts | 272° |
| 2026-04-22 16:12 | 48.84747 | 1.35899 | 29626 ft | 449 kts | 272° |
| 2026-04-22 16:12 | 48.84751 | 1.31167 | 30098 ft | 448 kts | 272° |
| 2026-04-22 16:13 | 48.84753 | 1.26449 | 30621 ft | 445 kts | 272° |
| 2026-04-22 16:13 | 48.84753 | 1.21772 | 31061 ft | 443 kts | 272° |
| 2026-04-22 16:13 | 48.84751 | 1.17094 | 31457 ft | 442 kts | 272° |
| 2026-04-22 16:13 | 48.84747 | 1.12439 | 31826 ft | 441 kts | 272° |
| 2026-04-22 16:14 | 48.84742 | 1.07779 | 32193 ft | 441 kts | 272° |
| 2026-04-22 16:14 | 48.84735 | 1.03124 | 32581 ft | 440 kts | 272° |
| 2026-04-22 16:14 | 48.84726 | 0.98495 | 32968 ft | 438 kts | 273° |
| 2026-04-22 16:14 | 48.84715 | 0.93875 | 33344 ft | 437 kts | 273° |
| 2026-04-22 16:15 | 48.84702 | 0.89270 | 33690 ft | 436 kts | 273° |
| 2026-04-22 16:15 | 48.84688 | 0.84662 | 34035 ft | 435 kts | 273° |
| 2026-04-22 16:15 | 48.84672 | 0.80052 | 34139 ft | 439 kts | 273° |
| 2026-04-22 16:15 | 48.84655 | 0.75473 | 34176 ft | 440 kts | 273° |
| 2026-04-22 16:16 | 48.84608 | 0.65437 | 34169 ft | 435 kts | 273° |
| 2026-04-22 16:16 | 48.84501 | 0.47204 | 34171 ft | 429 kts | 272° |
| 2026-04-22 16:17 | 48.84370 | 0.29050 | 34180 ft | 434 kts | 272° |
| 2026-04-22 16:17 | 48.84205 | 0.10499 | 34173 ft | 443 kts | 272° |
| 2026-04-22 16:18 | 48.84006 | -0.08226 | 34152 ft | 440 kts | 271° |
| 2026-04-22 16:18 | 48.83858 | -0.26606 | 34155 ft | 430 kts | 275° |
| 2026-04-22 16:19 | 48.84854 | -0.44743 | 34166 ft | 436 kts | 276° |
| 2026-04-22 16:19 | 48.85832 | -0.63322 | 34171 ft | 445 kts | 276° |
| 2026-04-22 16:20 | 48.86772 | -0.82003 | 34139 ft | 438 kts | 275° |
| 2026-04-22 16:20 | 48.87660 | -1.00182 | 34151 ft | 431 kts | 275° |
| 2026-04-22 16:21 | 48.88525 | -1.18452 | 34172 ft | 438 kts | 275° |
| 2026-04-22 16:21 | 48.89378 | -1.37153 | 34158 ft | 447 kts | 275° |
| 2026-04-22 16:22 | 48.90596 | -1.64949 | 34133 ft | 438 kts | 274° |
| 2026-04-22 16:23 | 48.88315 | -1.92191 | 34147 ft | 444 kts | 257° |
| 2026-04-22 16:23 | 48.85273 | -2.10596 | 34126 ft | 452 kts | 257° |
| 2026-04-22 16:24 | 48.80740 | -2.38046 | 34121 ft | 440 kts | 257° |
| 2026-04-22 16:25 | 48.77744 | -2.55965 | 34117 ft | 438 kts | 257° |
| 2026-04-22 16:25 | 48.73120 | -2.83223 | 34121 ft | 451 kts | 256° |
| 2026-04-22 16:26 | 48.70262 | -3.01677 | 34108 ft | 446 kts | 260° |
| 2026-04-22 16:26 | 48.68126 | -3.20009 | 34155 ft | 438 kts | 260° |
| 2026-04-22 16:27 | 48.65945 | -3.38208 | 34143 ft | 443 kts | 260° |
| 2026-04-22 16:27 | 48.63699 | -3.56616 | 34138 ft | 451 kts | 259° |
| 2026-04-22 16:28 | 48.61391 | -3.75274 | 34090 ft | 448 kts | 259° |
| 2026-04-22 16:28 | 48.59097 | -3.93555 | 34104 ft | 439 kts | 259° |
| 2026-04-22 16:29 | 48.56794 | -4.11686 | 34120 ft | 443 kts | 259° |
| 2026-04-22 16:29 | 48.54413 | -4.30166 | 34112 ft | 452 kts | 258° |
| 2026-04-22 16:30 | 48.51995 | -4.48700 | 34094 ft | 445 kts | 258° |
| 2026-04-22 16:30 | 48.49600 | -4.66804 | 34096 ft | 437 kts | 258° |
| 2026-04-22 16:31 | 48.47188 | -4.84813 | 34116 ft | 443 kts | 257° |
| 2026-04-22 16:31 | 48.44694 | -5.03193 | 34106 ft | 450 kts | 257° |
| 2026-04-22 16:32 | 48.42183 | -5.21487 | 34081 ft | 445 kts | 257° |
| 2026-04-22 16:32 | 48.39675 | -5.39524 | 34086 ft | 437 kts | 257° |
| 2026-04-22 16:33 | 48.37154 | -5.57424 | 34116 ft | 440 kts | 256° |
| 2026-04-22 16:33 | 48.34561 | -5.75621 | 34110 ft | 449 kts | 256° |
| 2026-04-22 16:34 | 48.31903 | -5.94054 | 34096 ft | 449 kts | 256° |
| 2026-04-22 16:34 | 48.29256 | -6.12205 | 34087 ft | 441 kts | 256° |
| 2026-04-22 16:35 | 48.26616 | -6.30079 | 34102 ft | 438 kts | 255° |
| 2026-04-22 16:35 | 48.23941 | -6.47979 | 34103 ft | 446 kts | 255° |
| 2026-04-22 16:36 | 48.21180 | -6.66253 | 34104 ft | 450 kts | 255° |
| 2026-04-22 16:36 | 48.18411 | -6.84385 | 34092 ft | 441 kts | 254° |
| 2026-04-22 16:37 | 48.15663 | -7.02170 | 34083 ft | 435 kts | 253° |
| 2026-04-22 16:37 | 48.12891 | -7.19891 | 34095 ft | 442 kts | 253° |
| 2026-04-22 16:38 | 48.10038 | -7.37952 | 34101 ft | 449 kts | 253° |
| 2026-04-22 16:38 | 48.07141 | -7.56105 | 34068 ft | 445 kts | 253° |
| 2026-04-22 16:39 | 48.04266 | -7.73917 | 34066 ft | 437 kts | 252° |
| 2026-04-22 16:39 | 48.01391 | -7.91538 | 34083 ft | 438 kts | 252° |
| 2026-04-22 16:40 | 47.99953 | -8.09906 | 34091 ft | 456 kts | 265° |
| 2026-04-22 16:41 | 48.00061 | -8.38328 | 34055 ft | 454 kts | 265° |
| 2026-04-22 16:41 | 48.00043 | -8.57009 | 33987 ft | 442 kts | 266° |
| 2026-04-22 16:42 | 47.99916 | -8.74695 | 34069 ft | 428 kts | 262° |
| 2026-04-22 16:42 | 47.97877 | -8.92153 | 34049 ft | 431 kts | 256° |
| 2026-04-22 16:43 | 47.95631 | -9.09885 | 34046 ft | 437 kts | 256° |
| 2026-04-22 16:43 | 47.93365 | -9.27690 | 34020 ft | 434 kts | 256° |
| 2026-04-22 16:44 | 47.91114 | -9.45147 | 34020 ft | 425 kts | 256° |
| 2026-04-22 16:44 | 47.89244 | -9.59464 | 34013 ft | 423 kts | 256° |
| 2026-04-22 16:45 | 47.86948 | -9.76834 | 34016 ft | 432 kts | 255° |
| 2026-04-22 16:45 | 47.84585 | -9.94523 | 33997 ft | 436 kts | 255° |
| 2026-04-22 16:46 | 47.82217 | -10.12051 | 33976 ft | 426 kts | 255° |
| 2026-04-22 16:46 | 47.79880 | -10.29114 | 33974 ft | 420 kts | 255° |
| 2026-04-22 16:47 | 47.77512 | -10.46187 | 33989 ft | 426 kts | 254° |
| 2026-04-22 16:47 | 47.75073 | -10.63582 | 33968 ft | 433 kts | 254° |
| 2026-04-22 16:48 | 47.72590 | -10.81105 | 33935 ft | 430 kts | 254° |
| 2026-04-22 16:48 | 47.70127 | -10.98293 | 33928 ft | 422 kts | 253° |
| 2026-04-22 16:49 | 47.67670 | -11.15216 | 33934 ft | 419 kts | 253° |
| 2026-04-22 16:49 | 47.65176 | -11.32192 | 33935 ft | 428 kts | 253° |
| 2026-04-22 16:50 | 47.62603 | -11.49541 | 33921 ft | 433 kts | 253° |
| 2026-04-22 16:50 | 47.60010 | -11.66864 | 33893 ft | 425 kts | 252° |
| 2026-04-22 16:51 | 47.57439 | -11.83826 | 33885 ft | 419 kts | 252° |
| 2026-04-22 16:51 | 47.54864 | -12.00606 | 33893 ft | 423 kts | 252° |
| 2026-04-22 16:52 | 47.52202 | -12.17777 | 33881 ft | 432 kts | 251° |
| 2026-04-22 16:52 | 47.49494 | -12.35107 | 33846 ft | 430 kts | 251° |
| 2026-04-22 16:53 | 47.46802 | -12.52144 | 33839 ft | 421 kts | 251° |
| 2026-04-22 16:53 | 47.44115 | -12.68945 | 33844 ft | 420 kts | 250° |
| 2026-04-22 16:54 | 47.41367 | -12.85932 | 33839 ft | 429 kts | 250° |
| 2026-04-22 16:54 | 47.38557 | -13.03178 | 33818 ft | 432 kts | 250° |
| 2026-04-22 16:55 | 47.35768 | -13.20139 | 33797 ft | 423 kts | 250° |
| 2026-04-22 16:55 | 47.32977 | -13.36905 | 33793 ft | 418 kts | 250° |
| 2026-04-22 16:56 | 47.30159 | -13.53644 | 33797 ft | 425 kts | 249° |
| 2026-04-22 16:56 | 47.27260 | -13.70721 | 33774 ft | 433 kts | 249° |
| 2026-04-22 16:57 | 47.24318 | -13.87913 | 33756 ft | 430 kts | 249° |
| 2026-04-22 16:57 | 47.21396 | -14.04818 | 33750 ft | 422 kts | 249° |
| 2026-04-22 16:58 | 47.18978 | -14.18659 | 33746 ft | 420 kts | 248° |
| 2026-04-22 16:58 | 47.15507 | -14.38322 | 33741 ft | 431 kts | 248° |
| 2026-04-22 16:59 | 47.12456 | -14.55468 | 33725 ft | 434 kts | 248° |
| 2026-04-22 16:59 | 47.09416 | -14.72422 | 33701 ft | 425 kts | 248° |
| 2026-04-22 17:00 | 47.06412 | -14.88981 | 33694 ft | 421 kts | 247° |
| 2026-04-22 17:00 | 47.01789 | -15.14134 | 33691 ft | 432 kts | 247° |
| 2026-04-22 17:01 | 46.98612 | -15.31268 | 33673 ft | 436 kts | 247° |
| 2026-04-22 17:01 | 46.95443 | -15.48226 | 33646 ft | 427 kts | 246° |
| 2026-04-22 17:02 | 46.92295 | -15.64884 | 33641 ft | 423 kts | 246° |
| 2026-04-22 17:02 | 46.89103 | -15.81586 | 33646 ft | 432 kts | 246° |
| 2026-04-22 17:03 | 46.85842 | -15.98538 | 33624 ft | 440 kts | 246° |
| 2026-04-22 17:03 | 46.82525 | -16.15669 | 33594 ft | 434 kts | 246° |
| 2026-04-22 17:04 | 46.79235 | -16.32486 | 33573 ft | 428 kts | 245° |
| 2026-04-22 17:04 | 46.75920 | -16.49236 | 33596 ft | 434 kts | 245° |
| 2026-04-22 17:05 | 46.72504 | -16.66369 | 33578 ft | 444 kts | 245° |
| 2026-04-22 17:05 | 46.69033 | -16.83672 | 33560 ft | 444 kts | 245° |
| 2026-04-22 17:06 | 46.65574 | -17.00762 | 33538 ft | 435 kts | 245° |
| 2026-04-22 17:06 | 46.62134 | -17.17573 | 33542 ft | 433 kts | 245° |
| 2026-04-22 17:07 | 46.58631 | -17.34525 | 33544 ft | 442 kts | 245° |
| 2026-04-22 17:07 | 46.55048 | -17.51768 | 33523 ft | 448 kts | 245° |
| 2026-04-22 17:08 | 46.51446 | -17.68967 | 33505 ft | 445 kts | 245° |
| 2026-04-22 17:08 | 46.47842 | -17.86023 | 33490 ft | 438 kts | 244° |
| 2026-04-22 17:09 | 46.44240 | -18.02889 | 33507 ft | 441 kts | 244° |
| 2026-04-22 17:09 | 46.40543 | -18.20057 | 33496 ft | 451 kts | 244° |
| 2026-04-22 17:10 | 46.36766 | -18.37498 | 33475 ft | 453 kts | 244° |
| 2026-04-22 17:10 | 46.33024 | -18.54646 | 33450 ft | 445 kts | 244° |
| 2026-04-22 17:11 | 46.29282 | -18.71612 | 33445 ft | 441 kts | 244° |
| 2026-04-22 17:11 | 46.25484 | -18.88669 | 33458 ft | 451 kts | 244° |
| 2026-04-22 17:12 | 46.21592 | -19.06049 | 33432 ft | 458 kts | 244° |
| 2026-04-22 17:12 | 46.17672 | -19.23442 | 33411 ft | 452 kts | 244° |
| 2026-04-22 17:13 | 46.13776 | -19.40551 | 33416 ft | 447 kts | 243° |
| 2026-04-22 17:13 | 46.09866 | -19.57568 | 33416 ft | 451 kts | 244° |
| 2026-04-22 17:14 | 46.05846 | -19.74942 | 33410 ft | 462 kts | 244° |
| 2026-04-22 17:14 | 46.01768 | -19.92460 | 33381 ft | 465 kts | 244° |
| 2026-04-22 17:15 | 45.96358 | -20.08832 | 33374 ft | 447 kts | 232° |
| 2026-04-22 17:15 | 45.89883 | -20.24058 | 33376 ft | 446 kts | 233° |
| 2026-04-22 17:16 | 45.83371 | -20.39432 | 33378 ft | 457 kts | 233° |
| 2026-04-22 17:16 | 45.76675 | -20.55174 | 33365 ft | 467 kts | 233° |
| 2026-04-22 17:17 | 45.69912 | -20.70997 | 33331 ft | 463 kts | 233° |
| 2026-04-22 17:17 | 45.63272 | -20.86437 | 33321 ft | 456 kts | 233° |
| 2026-04-22 17:18 | 45.56603 | -21.01844 | 33329 ft | 458 kts | 234° |
| 2026-04-22 17:18 | 45.49787 | -21.17505 | 33320 ft | 469 kts | 234° |
| 2026-04-22 17:19 | 45.35936 | -21.49097 | 33266 ft | 463 kts | 234° |
| 2026-04-22 17:20 | 45.22304 | -21.79826 | 33255 ft | 465 kts | 234° |
| 2026-04-22 17:21 | 45.11743 | -22.03409 | 33213 ft | 474 kts | 234° |
| 2026-04-22 17:22 | 45.01072 | -22.27046 | 33223 ft | 475 kts | 234° |
| 2026-04-22 17:23 | 44.90314 | -22.50674 | 33168 ft | 479 kts | 234° |
| 2026-04-22 17:23 | 44.79535 | -22.74160 | 33159 ft | 479 kts | 234° |
| 2026-04-22 17:24 | 44.72241 | -22.89944 | 33140 ft | 481 kts | 234° |
| 2026-04-22 17:24 | 44.64928 | -23.05680 | 33127 ft | 480 kts | 234° |
| 2026-04-22 17:25 | 44.57634 | -23.21287 | 33124 ft | 476 kts | 234° |
| 2026-04-22 17:25 | 44.50387 | -23.36716 | 33116 ft | 470 kts | 234° |
| 2026-04-22 17:26 | 44.43256 | -23.51817 | 33108 ft | 465 kts | 235° |
| 2026-04-22 17:26 | 44.36106 | -23.66873 | 33102 ft | 465 kts | 235° |
| 2026-04-22 17:27 | 44.28910 | -23.81952 | 33074 ft | 468 kts | 235° |
| 2026-04-22 17:27 | 44.21660 | -23.97065 | 33088 ft | 471 kts | 235° |
| 2026-04-22 17:28 | 44.14292 | -24.12340 | 33054 ft | 478 kts | 235° |
| 2026-04-22 17:28 | 44.06843 | -24.27707 | 33048 ft | 478 kts | 235° |
| 2026-04-22 17:29 | 43.99402 | -24.42974 | 33044 ft | 476 kts | 235° |
| 2026-04-22 17:29 | 43.91936 | -24.58215 | 33041 ft | 478 kts | 236° |
| 2026-04-22 17:30 | 43.84441 | -24.73433 | 33042 ft | 478 kts | 236° |
| 2026-04-22 17:30 | 43.76914 | -24.88638 | 33041 ft | 478 kts | 236° |
| 2026-04-22 17:31 | 43.69388 | -25.03761 | 33054 ft | 476 kts | 236° |
| 2026-04-22 17:31 | 43.61917 | -25.18698 | 33058 ft | 472 kts | 236° |
| 2026-04-22 17:32 | 43.54475 | -25.33499 | 33075 ft | 466 kts | 236° |
| 2026-04-22 17:32 | 43.48324 | -25.45681 | 33104 ft | 466 kts | 236° |
| 2026-04-22 17:33 | 43.40895 | -25.60322 | 33116 ft | 466 kts | 237° |
| 2026-04-22 17:33 | 43.33446 | -25.74934 | 33132 ft | 465 kts | 237° |
| 2026-04-22 17:34 | 43.25977 | -25.89511 | 33148 ft | 467 kts | 237° |
| 2026-04-22 17:34 | 43.18460 | -26.04098 | 33171 ft | 468 kts | 238° |
| 2026-04-22 17:35 | 43.10997 | -26.18522 | 33178 ft | 464 kts | 238° |
| 2026-04-22 17:35 | 43.03491 | -26.32968 | 33208 ft | 467 kts | 238° |
| 2026-04-22 17:36 | 42.95936 | -26.47423 | 33222 ft | 467 kts | 238° |
| 2026-04-22 17:36 | 42.88386 | -26.61802 | 33239 ft | 466 kts | 238° |
| 2026-04-22 17:37 | 42.80808 | -26.76167 | 33264 ft | 468 kts | 238° |
| 2026-04-22 17:37 | 42.73138 | -26.90636 | 33280 ft | 473 kts | 238° |
| 2026-04-22 17:38 | 42.65387 | -27.05185 | 33291 ft | 476 kts | 238° |
| 2026-04-22 17:38 | 42.57584 | -27.19759 | 33302 ft | 477 kts | 238° |
| 2026-04-22 17:39 | 42.49765 | -27.34292 | 33317 ft | 476 kts | 237° |
| 2026-04-22 17:40 | 42.38107 | -27.55831 | 33353 ft | 472 kts | 237° |
| 2026-04-22 17:40 | 42.30321 | -27.70134 | 33354 ft | 470 kts | 237° |
| 2026-04-22 17:41 | 42.22577 | -27.84290 | 33364 ft | 467 kts | 237° |
| 2026-04-22 17:41 | 42.14847 | -27.98355 | 33380 ft | 466 kts | 237° |
| 2026-04-22 17:42 | 42.07128 | -28.12334 | 33398 ft | 464 kts | 237° |
| 2026-04-22 17:42 | 41.99445 | -28.26186 | 33405 ft | 465 kts | 237° |
| 2026-04-22 17:43 | 41.91707 | -28.40072 | 33417 ft | 464 kts | 237° |
| 2026-04-22 17:43 | 41.83958 | -28.53912 | 33428 ft | 464 kts | 237° |
| 2026-04-22 17:44 | 41.76193 | -28.67722 | 33442 ft | 463 kts | 236° |
| 2026-04-22 17:44 | 41.68415 | -28.81496 | 33452 ft | 464 kts | 237° |
| 2026-04-22 17:45 | 41.60608 | -28.95247 | 33466 ft | 464 kts | 236° |
| 2026-04-22 17:45 | 41.52773 | -29.08991 | 33483 ft | 466 kts | 237° |
| 2026-04-22 17:46 | 41.44917 | -29.22712 | 33498 ft | 470 kts | 236° |
| 2026-04-22 17:46 | 41.36894 | -29.36663 | 33507 ft | 473 kts | 236° |
| 2026-04-22 17:47 | 41.28903 | -29.50490 | 33527 ft | 475 kts | 236° |
| 2026-04-22 17:47 | 41.20821 | -29.64409 | 33538 ft | 476 kts | 236° |
| 2026-04-22 17:48 | 41.12709 | -29.78321 | 33540 ft | 476 kts | 236° |
| 2026-04-22 17:48 | 41.04566 | -29.92229 | 33552 ft | 477 kts | 236° |
| 2026-04-22 17:49 | 40.96504 | -30.06150 | 33569 ft | 476 kts | 238° |
| 2026-04-22 17:49 | 40.88705 | -30.20306 | 33581 ft | 476 kts | 238° |
| 2026-04-22 17:50 | 40.80845 | -30.34402 | 33597 ft | 477 kts | 238° |
| 2026-04-22 17:50 | 40.72998 | -30.48385 | 33610 ft | 477 kts | 237° |
| 2026-04-22 17:51 | 40.65072 | -30.62452 | 33621 ft | 477 kts | 237° |
| 2026-04-22 17:51 | 40.57138 | -30.76467 | 33635 ft | 477 kts | 237° |
| 2026-04-22 17:52 | 40.49191 | -30.90446 | 33642 ft | 477 kts | 237° |
| 2026-04-22 17:52 | 40.45207 | -30.97429 | 33795 ft | 479 kts | 237° |
| 2026-04-22 17:52 | 40.41219 | -31.04404 | 34461 ft | 476 kts | 237° |
| 2026-04-22 17:52 | 40.37286 | -31.11265 | 34973 ft | 477 kts | 237° |
| 2026-04-22 17:53 | 40.33269 | -31.18265 | 35234 ft | 483 kts | 237° |
| 2026-04-22 17:53 | 40.29204 | -31.25331 | 35494 ft | 488 kts | 237° |
| 2026-04-22 17:53 | 40.25085 | -31.32470 | 35658 ft | 492 kts | 237° |
| 2026-04-22 17:54 | 40.16848 | -31.46686 | 35676 ft | 484 kts | 238° |
| 2026-04-22 17:54 | 40.08837 | -31.60453 | 35706 ft | 469 kts | 238° |
| 2026-04-22 17:55 | 40.02290 | -31.71674 | 35700 ft | 465 kts | 238° |
| 2026-04-22 17:55 | 39.93063 | -31.87422 | 35730 ft | 473 kts | 238° |
| 2026-04-22 17:56 | 39.84994 | -32.01121 | 35738 ft | 479 kts | 238° |
| 2026-04-22 17:56 | 39.76932 | -32.14736 | 35727 ft | 474 kts | 238° |
| 2026-04-22 17:57 | 39.68946 | -32.28169 | 35728 ft | 465 kts | 239° |
| 2026-04-22 17:57 | 39.61051 | -32.41408 | 35763 ft | 464 kts | 239° |
| 2026-04-22 17:58 | 39.53060 | -32.54756 | 35774 ft | 473 kts | 239° |
| 2026-04-22 17:58 | 39.44923 | -32.68273 | 35771 ft | 476 kts | 239° |
| 2026-04-22 17:59 | 39.36877 | -32.81572 | 35761 ft | 467 kts | 239° |
| 2026-04-22 17:59 | 39.28882 | -32.94746 | 35766 ft | 459 kts | 240° |
| 2026-04-22 18:00 | 39.22324 | -33.05524 | 35795 ft | 463 kts | 240° |
| 2026-04-22 18:00 | 39.12956 | -33.20851 | 35802 ft | 473 kts | 240° |
| 2026-04-22 18:01 | 39.04778 | -33.34149 | 35794 ft | 470 kts | 240° |
| 2026-04-22 18:01 | 38.96730 | -33.47182 | 35793 ft | 461 kts | 241° |
| 2026-04-22 18:02 | 38.88779 | -33.60028 | 35824 ft | 459 kts | 241° |
| 2026-04-22 18:02 | 38.80824 | -33.72825 | 35825 ft | 459 kts | 241° |
| 2026-04-22 18:03 | 38.72843 | -33.85607 | 35829 ft | 459 kts | 241° |
| 2026-04-22 18:03 | 38.64831 | -33.98389 | 35833 ft | 461 kts | 241° |
| 2026-04-22 18:04 | 38.56828 | -34.11105 | 35838 ft | 463 kts | 241° |
| 2026-04-22 18:04 | 38.48729 | -34.23924 | 35845 ft | 464 kts | 241° |
| 2026-04-22 18:05 | 38.40592 | -34.36750 | 35848 ft | 465 kts | 241° |
| 2026-04-22 18:05 | 38.32428 | -34.49568 | 35862 ft | 466 kts | 241° |
| 2026-04-22 18:06 | 38.24241 | -34.62371 | 35856 ft | 466 kts | 241° |
| 2026-04-22 18:06 | 38.16043 | -34.75143 | 35872 ft | 466 kts | 242° |
| 2026-04-22 18:07 | 38.09213 | -34.85747 | 35874 ft | 466 kts | 242° |
| 2026-04-22 18:07 | 37.99642 | -35.00602 | 35871 ft | 462 kts | 244° |
| 2026-04-22 18:08 | 37.92327 | -35.13696 | 35879 ft | 457 kts | 246° |
| 2026-04-22 18:08 | 37.84991 | -35.26848 | 35899 ft | 457 kts | 246° |
| 2026-04-22 18:09 | 37.77626 | -35.39948 | 35900 ft | 457 kts | 245° |
| 2026-04-22 18:09 | 37.70240 | -35.53036 | 35906 ft | 457 kts | 245° |
| 2026-04-22 18:10 | 37.62836 | -35.66101 | 35909 ft | 458 kts | 245° |
| 2026-04-22 18:10 | 37.55417 | -35.79144 | 35920 ft | 458 kts | 245° |
| 2026-04-22 18:11 | 37.47966 | -35.92192 | 35930 ft | 459 kts | 244° |
| 2026-04-22 18:11 | 37.40494 | -36.05224 | 35923 ft | 459 kts | 244° |
| 2026-04-22 18:12 | 37.33009 | -36.18229 | 35929 ft | 459 kts | 244° |
| 2026-04-22 18:12 | 37.26772 | -36.29026 | 35940 ft | 459 kts | 244° |
| 2026-04-22 18:13 | 37.18044 | -36.44078 | 35945 ft | 459 kts | 243° |
| 2026-04-22 18:13 | 37.10516 | -36.57007 | 35944 ft | 459 kts | 243° |
| 2026-04-22 18:14 | 37.02934 | -36.69978 | 35946 ft | 458 kts | 243° |
| 2026-04-22 18:14 | 36.95435 | -36.82757 | 35964 ft | 458 kts | 243° |
| 2026-04-22 18:15 | 36.87877 | -36.95590 | 35958 ft | 458 kts | 243° |
| 2026-04-22 18:15 | 36.80306 | -37.08395 | 35960 ft | 458 kts | 242° |
| 2026-04-22 18:16 | 36.72732 | -37.21157 | 35967 ft | 457 kts | 242° |
| 2026-04-22 18:16 | 36.65147 | -37.33889 | 35965 ft | 457 kts | 242° |
| 2026-04-22 18:17 | 36.57553 | -37.46589 | 35980 ft | 457 kts | 242° |
| 2026-04-22 18:17 | 36.49937 | -37.59279 | 35971 ft | 458 kts | 242° |
| 2026-04-22 18:18 | 36.42353 | -37.71866 | 35980 ft | 458 kts | 241° |
| 2026-04-22 18:18 | 36.34697 | -37.84528 | 35980 ft | 458 kts | 241° |
| 2026-04-22 18:19 | 36.27029 | -37.97162 | 35987 ft | 458 kts | 241° |
| 2026-04-22 18:19 | 36.19341 | -38.09782 | 35981 ft | 459 kts | 240° |
| 2026-04-22 18:20 | 36.11646 | -38.22368 | 35983 ft | 459 kts | 240° |
| 2026-04-22 18:20 | 36.03917 | -38.34963 | 35988 ft | 459 kts | 240° |
| 2026-04-22 18:21 | 35.96224 | -38.47453 | 35990 ft | 460 kts | 240° |
| 2026-04-22 18:21 | 35.88467 | -38.60001 | 35987 ft | 460 kts | 239° |
| 2026-04-22 18:22 | 35.81949 | -38.70509 | 35986 ft | 460 kts | 239° |
| 2026-04-22 18:22 | 35.74159 | -38.83028 | 35988 ft | 461 kts | 239° |
| 2026-04-22 18:23 | 35.66345 | -38.95539 | 35980 ft | 461 kts | 239° |
| 2026-04-22 18:23 | 35.58561 | -39.07956 | 35989 ft | 461 kts | 239° |
| 2026-04-22 18:24 | 35.46779 | -39.26670 | 35990 ft | 461 kts | 238° |
| 2026-04-22 18:25 | 35.34972 | -39.45321 | 35997 ft | 461 kts | 238° |
| 2026-04-22 18:25 | 35.27082 | -39.57731 | 35988 ft | 461 kts | 238° |
| 2026-04-22 18:26 | 35.15237 | -39.76278 | 35995 ft | 461 kts | 238° |
| 2026-04-22 18:26 | 35.07338 | -39.88593 | 36001 ft | 460 kts | 238° |
| 2026-04-22 18:27 | 34.99531 | -40.00832 | 36021 ft | 457 kts | 241° |
| 2026-04-22 18:27 | 34.92707 | -40.13859 | 35995 ft | 455 kts | 243° |
| 2026-04-22 18:28 | 34.85905 | -40.26852 | 36015 ft | 455 kts | 243° |
| 2026-04-22 18:28 | 34.79049 | -40.39844 | 36016 ft | 455 kts | 243° |
| 2026-04-22 18:29 | 34.72192 | -40.52789 | 36016 ft | 455 kts | 242° |
| 2026-04-22 18:29 | 34.65314 | -40.65730 | 36017 ft | 455 kts | 242° |
| 2026-04-22 18:30 | 34.55035 | -40.84981 | 36025 ft | 455 kts | 242° |
| 2026-04-22 18:31 | 34.48140 | -40.97837 | 36024 ft | 454 kts | 242° |
| 2026-04-22 18:31 | 34.41244 | -41.10648 | 36024 ft | 454 kts | 242° |
| 2026-04-22 18:32 | 34.34326 | -41.23453 | 36028 ft | 454 kts | 241° |
| 2026-04-22 18:32 | 34.27556 | -41.35940 | 36028 ft | 453 kts | 241° |
| 2026-04-22 18:33 | 34.20516 | -41.48880 | 36029 ft | 453 kts | 240° |
| 2026-04-22 18:33 | 34.13570 | -41.61602 | 36033 ft | 453 kts | 240° |
| 2026-04-22 18:34 | 34.06617 | -41.74292 | 36032 ft | 453 kts | 240° |
| 2026-04-22 18:34 | 33.99655 | -41.86953 | 36029 ft | 453 kts | 240° |
| 2026-04-22 18:35 | 33.92733 | -41.99498 | 36029 ft | 453 kts | 240° |
| 2026-04-22 18:35 | 33.85764 | -42.12084 | 36031 ft | 453 kts | 239° |
| 2026-04-22 18:36 | 33.78767 | -42.24677 | 36032 ft | 453 kts | 239° |
| 2026-04-22 18:36 | 33.71758 | -42.37249 | 36031 ft | 452 kts | 239° |
| 2026-04-22 18:37 | 33.64752 | -42.49771 | 36029 ft | 452 kts | 239° |
| 2026-04-22 18:37 | 33.57717 | -42.62303 | 36026 ft | 452 kts | 238° |
| 2026-04-22 18:38 | 33.50674 | -42.74805 | 36025 ft | 452 kts | 238° |
| 2026-04-22 18:38 | 33.43611 | -42.87301 | 36027 ft | 452 kts | 238° |
| 2026-04-22 18:39 | 33.33055 | -43.05897 | 36024 ft | 452 kts | 238° |
| 2026-04-22 18:39 | 33.25967 | -43.18331 | 36020 ft | 452 kts | 238° |
| 2026-04-22 18:40 | 33.18880 | -43.30722 | 36016 ft | 452 kts | 238° |
| 2026-04-22 18:40 | 33.11788 | -43.43080 | 36015 ft | 451 kts | 238° |
| 2026-04-22 18:41 | 33.04681 | -43.55424 | 36026 ft | 451 kts | 237° |
| 2026-04-22 18:41 | 32.97617 | -43.67652 | 36023 ft | 451 kts | 237° |
| 2026-04-22 18:42 | 32.90493 | -43.79943 | 36018 ft | 450 kts | 237° |
| 2026-04-22 18:42 | 32.83367 | -43.92196 | 36016 ft | 450 kts | 237° |
| 2026-04-22 18:43 | 32.76233 | -44.04424 | 36008 ft | 449 kts | 237° |
| 2026-04-22 18:43 | 32.69103 | -44.16607 | 36011 ft | 449 kts | 237° |
| 2026-04-22 18:44 | 32.61952 | -44.28784 | 36003 ft | 449 kts | 237° |
| 2026-04-22 18:44 | 32.54808 | -44.40910 | 36005 ft | 448 kts | 237° |
| 2026-04-22 18:45 | 32.47701 | -44.52936 | 36005 ft | 448 kts | 237° |
| 2026-04-22 18:45 | 32.40537 | -44.65017 | 36005 ft | 448 kts | 237° |
| 2026-04-22 18:46 | 32.33362 | -44.77081 | 35994 ft | 447 kts | 237° |
| 2026-04-22 18:46 | 32.26189 | -44.89101 | 36000 ft | 447 kts | 237° |
| 2026-04-22 18:47 | 32.19018 | -45.01081 | 35999 ft | 446 kts | 237° |
| 2026-04-22 18:47 | 32.11875 | -45.12977 | 35993 ft | 446 kts | 237° |
| 2026-04-22 18:48 | 32.04690 | -45.24905 | 35997 ft | 445 kts | 237° |
| 2026-04-22 18:48 | 31.97501 | -45.36802 | 35993 ft | 445 kts | 237° |
| 2026-04-22 18:49 | 31.90297 | -45.48688 | 35994 ft | 445 kts | 237° |
| 2026-04-22 18:49 | 31.83097 | -45.60531 | 35995 ft | 445 kts | 236° |
| 2026-04-22 18:50 | 31.75929 | -45.72284 | 35994 ft | 445 kts | 236° |
| 2026-04-22 18:50 | 31.68710 | -45.84085 | 35991 ft | 444 kts | 236° |
| 2026-04-22 18:51 | 31.61480 | -45.95867 | 35992 ft | 444 kts | 236° |
| 2026-04-22 18:51 | 31.54250 | -46.07614 | 35987 ft | 443 kts | 236° |
| 2026-04-22 18:52 | 31.47012 | -46.19339 | 35989 ft | 443 kts | 236° |
| 2026-04-22 18:52 | 31.39820 | -46.30954 | 35987 ft | 443 kts | 236° |
| 2026-04-22 18:53 | 31.32580 | -46.42610 | 35988 ft | 442 kts | 236° |
| 2026-04-22 18:53 | 31.25329 | -46.54251 | 35989 ft | 442 kts | 236° |
| 2026-04-22 18:54 | 31.18090 | -46.65837 | 35982 ft | 441 kts | 236° |
| 2026-04-22 18:54 | 31.10851 | -46.77389 | 35984 ft | 440 kts | 236° |
| 2026-04-22 18:55 | 31.03615 | -46.88902 | 35979 ft | 439 kts | 236° |
| 2026-04-22 18:55 | 30.96448 | -47.00273 | 35979 ft | 438 kts | 236° |
| 2026-04-22 18:56 | 30.89230 | -47.11691 | 35981 ft | 437 kts | 236° |
| 2026-04-22 18:56 | 30.82023 | -47.23060 | 35978 ft | 436 kts | 236° |
| 2026-04-22 18:57 | 30.74816 | -47.34395 | 35978 ft | 435 kts | 236° |
| 2026-04-22 18:57 | 30.67610 | -47.45696 | 35981 ft | 435 kts | 236° |
| 2026-04-22 18:58 | 30.60396 | -47.56977 | 35981 ft | 436 kts | 236° |
| 2026-04-22 18:58 | 30.53156 | -47.68268 | 35979 ft | 436 kts | 236° |
| 2026-04-22 18:59 | 30.45892 | -47.79563 | 35981 ft | 437 kts | 236° |
| 2026-04-22 18:59 | 30.38656 | -47.90784 | 35980 ft | 437 kts | 236° |
| 2026-04-22 19:00 | 30.31372 | -48.02046 | 35974 ft | 437 kts | 236° |
| 2026-04-22 19:00 | 30.24075 | -48.13298 | 35969 ft | 436 kts | 236° |
| 2026-04-22 19:01 | 30.16792 | -48.24497 | 35970 ft | 435 kts | 236° |
| 2026-04-22 19:01 | 30.09520 | -48.35647 | 35978 ft | 434 kts | 236° |
| 2026-04-22 19:02 | 30.02284 | -48.46713 | 35979 ft | 433 kts | 236° |
| 2026-04-22 19:02 | 29.95017 | -48.57794 | 35976 ft | 433 kts | 235° |
| 2026-04-22 19:03 | 29.87742 | -48.68859 | 35978 ft | 433 kts | 235° |
| 2026-04-22 19:03 | 29.80457 | -48.79908 | 35980 ft | 433 kts | 235° |
| 2026-04-22 19:04 | 29.73148 | -48.90963 | 35975 ft | 434 kts | 235° |
| 2026-04-22 19:04 | 29.65823 | -49.02012 | 35983 ft | 434 kts | 235° |
| 2026-04-22 19:05 | 29.58482 | -49.13055 | 35984 ft | 435 kts | 236° |
| 2026-04-22 19:05 | 29.49436 | -49.26624 | 35982 ft | 434 kts | 236° |
| 2026-04-22 19:06 | 29.34713 | -49.48610 | 35975 ft | 434 kts | 235° |
| 2026-04-22 19:07 | 29.12593 | -49.81428 | 35981 ft | 434 kts | 235° |
| 2026-04-22 19:07 | 28.97349 | -50.02819 | 35964 ft | 438 kts | 225° |
| 2026-04-22 19:08 | 28.79152 | -50.21344 | 35978 ft | 438 kts | 225° |
| 2026-04-22 19:08 | 28.60977 | -50.39868 | 35984 ft | 439 kts | 225° |
| 2026-04-22 19:09 | 28.42724 | -50.58379 | 35996 ft | 439 kts | 225° |
| 2026-04-22 19:09 | 28.27538 | -50.73712 | 35992 ft | 439 kts | 225° |
| 2026-04-22 19:10 | 28.06191 | -50.95162 | 35989 ft | 438 kts | 225° |
| 2026-04-22 19:10 | 27.87962 | -51.13386 | 35986 ft | 437 kts | 225° |
| 2026-04-22 19:11 | 27.72819 | -51.28460 | 35991 ft | 436 kts | 225° |
| 2026-04-22 19:11 | 27.54573 | -51.46546 | 35996 ft | 436 kts | 225° |
| 2026-04-22 19:12 | 27.36292 | -51.64583 | 35994 ft | 437 kts | 225° |
| 2026-04-22 19:12 | 27.17977 | -51.82572 | 35994 ft | 437 kts | 225° |
| 2026-04-22 19:13 | 26.99727 | -52.00416 | 35993 ft | 437 kts | 226° |
| 2026-04-22 19:13 | 26.81363 | -52.18291 | 35996 ft | 437 kts | 226° |
| 2026-04-22 19:14 | 26.62991 | -52.36094 | 35999 ft | 436 kts | 226° |
| 2026-04-22 19:14 | 26.44657 | -52.53781 | 35994 ft | 435 kts | 226° |
| 2026-04-22 19:15 | 26.26394 | -52.71324 | 35999 ft | 432 kts | 227° |
| 2026-04-22 19:15 | 26.08194 | -52.88732 | 35995 ft | 429 kts | 227° |
| 2026-04-22 19:16 | 25.90215 | -53.05855 | 35993 ft | 426 kts | 227° |
| 2026-04-22 19:16 | 25.72232 | -53.22912 | 36001 ft | 423 kts | 227° |
| 2026-04-22 19:17 | 25.54359 | -53.39795 | 35995 ft | 421 kts | 227° |
| 2026-04-22 19:17 | 25.36572 | -53.56528 | 36001 ft | 419 kts | 228° |
| 2026-04-22 19:18 | 25.18815 | -53.73167 | 36003 ft | 417 kts | 228° |
| 2026-04-22 19:18 | 25.01104 | -53.89696 | 36008 ft | 416 kts | 228° |
| 2026-04-22 19:19 | 24.83510 | -54.06053 | 36006 ft | 415 kts | 228° |
| 2026-04-22 19:19 | 24.65837 | -54.22421 | 36004 ft | 415 kts | 228° |
| 2026-04-22 19:20 | 24.48174 | -54.38716 | 36003 ft | 414 kts | 228° |
| 2026-04-22 19:20 | 24.30518 | -54.54943 | 36005 ft | 413 kts | 228° |
| 2026-04-22 19:21 | 24.12869 | -54.71103 | 36001 ft | 413 kts | 228° |
| 2026-04-22 19:21 | 23.95193 | -54.87228 | 36012 ft | 414 kts | 228° |
| 2026-04-22 19:22 | 23.77468 | -55.03337 | 36006 ft | 414 kts | 228° |
| 2026-04-22 19:22 | 23.59724 | -55.19405 | 36007 ft | 415 kts | 227° |
| 2026-04-22 19:23 | 23.42065 | -55.35338 | 36009 ft | 415 kts | 227° |
| 2026-04-22 19:23 | 23.24271 | -55.51335 | 36011 ft | 415 kts | 227° |
| 2026-04-22 19:24 | 23.06450 | -55.67298 | 36007 ft | 414 kts | 227° |
| 2026-04-22 19:24 | 22.88636 | -55.83199 | 36005 ft | 414 kts | 227° |
| 2026-04-22 19:25 | 22.70817 | -55.99050 | 36006 ft | 414 kts | 227° |
| 2026-04-22 19:25 | 22.52980 | -56.14862 | 36009 ft | 414 kts | 227° |
| 2026-04-22 19:26 | 22.35129 | -56.30631 | 36009 ft | 415 kts | 227° |
| 2026-04-22 19:26 | 22.17211 | -56.46405 | 36013 ft | 416 kts | 227° |
| 2026-04-22 19:27 | 21.99231 | -56.62180 | 36005 ft | 417 kts | 226° |
| 2026-04-22 19:27 | 21.81329 | -56.77834 | 36013 ft | 418 kts | 226° |
| 2026-04-22 19:28 | 21.63253 | -56.93587 | 36012 ft | 419 kts | 226° |
| 2026-04-22 19:28 | 21.45093 | -57.09361 | 36002 ft | 420 kts | 226° |
| 2026-04-22 19:29 | 21.26890 | -57.25120 | 36002 ft | 421 kts | 226° |
| 2026-04-22 19:29 | 21.08619 | -57.40886 | 36005 ft | 422 kts | 225° |
| 2026-04-22 19:30 | 20.93400 | -57.53980 | 36000 ft | 422 kts | 225° |
| 2026-04-22 19:30 | 20.72044 | -57.72294 | 35999 ft | 423 kts | 225° |
| 2026-04-22 19:31 | 20.53611 | -57.88046 | 35994 ft | 425 kts | 225° |
| 2026-04-22 19:31 | 20.35050 | -58.03858 | 35992 ft | 426 kts | 225° |
| 2026-04-22 19:32 | 20.16580 | -58.19543 | 36001 ft | 428 kts | 225° |
| 2026-04-22 19:32 | 19.97909 | -58.35348 | 35990 ft | 430 kts | 224° |
| 2026-04-22 19:33 | 19.79155 | -58.51174 | 35988 ft | 431 kts | 224° |
| 2026-04-22 19:33 | 19.60315 | -58.67024 | 35989 ft | 432 kts | 224° |
| 2026-04-22 19:34 | 19.41461 | -58.82837 | 35984 ft | 433 kts | 224° |
| 2026-04-22 19:34 | 19.22551 | -58.98648 | 35979 ft | 433 kts | 224° |
| 2026-04-22 19:35 | 19.03575 | -59.14467 | 35976 ft | 434 kts | 224° |
| 2026-04-22 19:35 | 18.87776 | -59.27601 | 35989 ft | 435 kts | 224° |
| 2026-04-22 19:36 | 18.65451 | -59.46106 | 35981 ft | 436 kts | 224° |
| 2026-04-22 19:36 | 18.46327 | -59.61907 | 35978 ft | 437 kts | 223° |
| 2026-04-22 19:37 | 18.37571 | -59.69126 | 35977 ft | 437 kts | 223° |
| 2026-04-22 19:37 | 18.32774 | -59.73077 | 35973 ft | 438 kts | 223° |
| 2026-04-22 19:38 | 18.27977 | -59.77025 | 35978 ft | 438 kts | 223° |
| 2026-04-22 19:38 | 18.23176 | -59.80974 | 35974 ft | 438 kts | 223° |
| 2026-04-22 19:39 | 18.18378 | -59.84918 | 35979 ft | 438 kts | 223° |
| 2026-04-22 19:39 | 18.13569 | -59.88867 | 35974 ft | 438 kts | 223° |
| 2026-04-22 19:40 | 18.08786 | -59.92794 | 35977 ft | 438 kts | 223° |
| 2026-04-22 19:40 | 18.03973 | -59.96742 | 35973 ft | 439 kts | 223° |
| 2026-04-22 19:41 | 17.99160 | -60.00695 | 35973 ft | 439 kts | 224° |
| 2026-04-22 19:41 | 17.94504 | -60.04819 | 35983 ft | 437 kts | 225° |
| 2026-04-22 19:42 | 17.89900 | -60.09021 | 35981 ft | 438 kts | 225° |
| 2026-04-22 19:42 | 17.85288 | -60.13198 | 35936 ft | 436 kts | 225° |
| 2026-04-22 19:42 | 17.82991 | -60.15264 | 35686 ft | 435 kts | 225° |
| 2026-04-22 19:43 | 17.78417 | -60.19367 | 35132 ft | 435 kts | 225° |
| 2026-04-22 19:43 | 17.76106 | -60.21437 | 34898 ft | 434 kts | 225° |
| 2026-04-22 19:43 | 17.73813 | -60.23488 | 34713 ft | 433 kts | 225° |
| 2026-04-22 19:44 | 17.71525 | -60.25536 | 34520 ft | 431 kts | 224° |
| 2026-04-22 19:44 | 17.69245 | -60.27576 | 34318 ft | 430 kts | 224° |
| 2026-04-22 19:44 | 17.66971 | -60.29611 | 34129 ft | 429 kts | 224° |
| 2026-04-22 19:44 | 17.64700 | -60.31642 | 33911 ft | 428 kts | 224° |
| 2026-04-22 19:45 | 17.62434 | -60.33667 | 33589 ft | 427 kts | 224° |
| 2026-04-22 19:45 | 17.60173 | -60.35688 | 33034 ft | 425 kts | 224° |
| 2026-04-22 19:45 | 17.57957 | -60.37666 | 32531 ft | 422 kts | 224° |
| 2026-04-22 19:45 | 17.55731 | -60.39654 | 32024 ft | 418 kts | 224° |
| 2026-04-22 19:46 | 17.53526 | -60.41623 | 31506 ft | 416 kts | 225° |
| 2026-04-22 19:46 | 17.51329 | -60.43583 | 31001 ft | 413 kts | 225° |
| 2026-04-22 19:46 | 17.49144 | -60.45533 | 30497 ft | 411 kts | 225° |
| 2026-04-22 19:46 | 17.46973 | -60.47470 | 29984 ft | 409 kts | 225° |
| 2026-04-22 19:47 | 17.44806 | -60.49403 | 29406 ft | 408 kts | 225° |
| 2026-04-22 19:47 | 17.42653 | -60.51323 | 28870 ft | 405 kts | 225° |
| 2026-04-22 19:47 | 17.41237 | -60.52585 | 28523 ft | 403 kts | 225° |
| 2026-04-22 19:47 | 17.38388 | -60.55123 | 27849 ft | 400 kts | 225° |
| 2026-04-22 19:48 | 17.36304 | -60.56979 | 27361 ft | 397 kts | 225° |
| 2026-04-22 19:48 | 17.34179 | -60.58872 | 26869 ft | 395 kts | 225° |
| 2026-04-22 19:48 | 17.32119 | -60.60705 | 26384 ft | 393 kts | 225° |
| 2026-04-22 19:48 | 17.30044 | -60.62552 | 25912 ft | 391 kts | 225° |
| 2026-04-22 19:49 | 17.27978 | -60.64392 | 25437 ft | 389 kts | 225° |
| 2026-04-22 19:49 | 17.25917 | -60.66225 | 24949 ft | 388 kts | 225° |
| 2026-04-22 19:49 | 17.23866 | -60.68048 | 24461 ft | 386 kts | 225° |
| 2026-04-22 19:49 | 17.21848 | -60.69892 | 23996 ft | 383 kts | 228° |
| 2026-04-22 19:50 | 17.20029 | -60.71903 | 23525 ft | 379 kts | 232° |
| 2026-04-22 19:50 | 17.18325 | -60.74003 | 22997 ft | 377 kts | 234° |
| 2026-04-22 19:50 | 17.16661 | -60.76117 | 22513 ft | 374 kts | 234° |
| 2026-04-22 19:50 | 17.15012 | -60.78209 | 22043 ft | 371 kts | 233° |
| 2026-04-22 19:51 | 17.13364 | -60.80279 | 21587 ft | 369 kts | 233° |
| 2026-04-22 19:51 | 17.11720 | -60.82324 | 21142 ft | 367 kts | 232° |
| 2026-04-22 19:51 | 17.10076 | -60.84351 | 20699 ft | 365 kts | 232° |
| 2026-04-22 19:51 | 17.08433 | -60.86366 | 20256 ft | 363 kts | 232° |
| 2026-04-22 19:52 | 17.06817 | -60.88342 | 19823 ft | 361 kts | 232° |
| 2026-04-22 19:52 | 17.05187 | -60.90331 | 19407 ft | 359 kts | 231° |
| 2026-04-22 19:52 | 17.03563 | -60.92310 | 18994 ft | 358 kts | 231° |
| 2026-04-22 19:52 | 17.01943 | -60.94283 | 18558 ft | 357 kts | 231° |
| 2026-04-22 19:53 | 17.00326 | -60.96251 | 18097 ft | 357 kts | 231° |
| 2026-04-22 19:53 | 16.98710 | -60.98215 | 17616 ft | 356 kts | 231° |
| 2026-04-22 19:53 | 16.97644 | -60.99510 | 17323 ft | 354 kts | 231° |
| 2026-04-22 19:53 | 16.95505 | -61.02110 | 16725 ft | 352 kts | 231° |
| 2026-04-22 19:54 | 16.93911 | -61.04048 | 16302 ft | 350 kts | 231° |
| 2026-04-22 19:54 | 16.92328 | -61.05972 | 15880 ft | 348 kts | 231° |
| 2026-04-22 19:54 | 16.90751 | -61.07888 | 15461 ft | 347 kts | 230° |
| 2026-04-22 19:54 | 16.89179 | -61.09798 | 15034 ft | 346 kts | 230° |
| 2026-04-22 19:55 | 16.87614 | -61.11699 | 14627 ft | 345 kts | 230° |
| 2026-04-22 19:55 | 16.86069 | -61.13575 | 14217 ft | 344 kts | 230° |
| 2026-04-22 19:55 | 16.84512 | -61.15466 | 13788 ft | 344 kts | 230° |
| 2026-04-22 19:55 | 16.82952 | -61.17359 | 13322 ft | 343 kts | 230° |
| 2026-04-22 19:56 | 16.81396 | -61.19246 | 12886 ft | 342 kts | 230° |
| 2026-04-22 19:56 | 16.79851 | -61.21121 | 12472 ft | 340 kts | 230° |
| 2026-04-22 19:56 | 16.78311 | -61.22987 | 12063 ft | 338 kts | 230° |
| 2026-04-22 19:56 | 16.76783 | -61.24842 | 11654 ft | 336 kts | 230° |
| 2026-04-22 19:57 | 16.75258 | -61.26689 | 11250 ft | 335 kts | 230° |
| 2026-04-22 19:57 | 16.73739 | -61.28530 | 10849 ft | 334 kts | 230° |
| 2026-04-22 19:57 | 16.72224 | -61.30366 | 10464 ft | 332 kts | 230° |
| 2026-04-22 19:57 | 16.70737 | -61.32167 | 10314 ft | 323 kts | 230° |
| 2026-04-22 19:58 | 16.69291 | -61.33917 | 10164 ft | 314 kts | 230° |
| 2026-04-22 19:58 | 16.67885 | -61.35619 | 10003 ft | 306 kts | 230° |
| 2026-04-22 19:58 | 16.66498 | -61.37298 | 9649 ft | 305 kts | 230° |
| 2026-04-22 19:58 | 16.65116 | -61.38969 | 9293 ft | 304 kts | 229° |
| 2026-04-22 19:59 | 16.63755 | -61.40616 | 8946 ft | 302 kts | 229° |
| 2026-04-22 20:00 | 16.56104 | -61.49865 | 7016 ft | 283 kts | 229° |
| 2026-04-22 20:00 | 16.54819 | -61.51418 | 6700 ft | 283 kts | 229° |
| 2026-04-22 20:01 | 16.53535 | -61.52969 | 6381 ft | 282 kts | 229° |
| 2026-04-22 20:01 | 16.52255 | -61.54514 | 6038 ft | 282 kts | 229° |
| 2026-04-22 20:01 | 16.50973 | -61.56061 | 5706 ft | 281 kts | 229° |
| 2026-04-22 20:01 | 16.49696 | -61.57602 | 5373 ft | 280 kts | 229° |
| 2026-04-22 20:02 | 16.48424 | -61.59136 | 5057 ft | 280 kts | 229° |
| 2026-04-22 20:02 | 16.47166 | -61.60675 | 4729 ft | 278 kts | 232° |
| 2026-04-22 20:02 | 16.46051 | -61.62322 | 4401 ft | 278 kts | 237° |
| 2026-04-22 20:02 | 16.45008 | -61.63982 | 4271 ft | 269 kts | 237° |
| 2026-04-22 20:03 | 16.43992 | -61.65577 | 4193 ft | 259 kts | 236° |
| 2026-04-22 20:03 | 16.43019 | -61.67084 | 4119 ft | 249 kts | 236° |
| 2026-04-22 20:03 | 16.42069 | -61.68546 | 4042 ft | 238 kts | 236° |
| 2026-04-22 20:03 | 16.41135 | -61.69909 | 3933 ft | 224 kts | 225° |
| 2026-04-22 20:04 | 16.39838 | -61.70664 | 3820 ft | 209 kts | 191° |
| 2026-04-22 20:04 | 16.38441 | -61.70891 | 3881 ft | 204 kts | 188° |
| 2026-04-22 20:04 | 16.37029 | -61.71114 | 3787 ft | 205 kts | 188° |
| 2026-04-22 20:04 | 16.35629 | -61.71332 | 3689 ft | 202 kts | 188° |
| 2026-04-22 20:05 | 16.34237 | -61.71546 | 3641 ft | 201 kts | 188° |
| 2026-04-22 20:05 | 16.32862 | -61.71756 | 3639 ft | 200 kts | 188° |
| 2026-04-22 20:05 | 16.31493 | -61.71849 | 3575 ft | 195 kts | 167° |
| 2026-04-22 20:05 | 16.30365 | -61.71152 | 3595 ft | 192 kts | 126° |
| 2026-04-22 20:06 | 16.29817 | -61.69888 | 3418 ft | 190 kts | 106° |
| 2026-04-22 20:06 | 16.29439 | -61.68617 | 3174 ft | 178 kts | 104° |
| 2026-04-22 20:06 | 16.29159 | -61.67395 | 2830 ft | 170 kts | 99° |
| 2026-04-22 20:06 | 16.28931 | -61.66205 | 2454 ft | 164 kts | 98° |
| 2026-04-22 20:07 | 16.28722 | -61.65079 | 2132 ft | 151 kts | 97° |
| 2026-04-22 20:07 | 16.28531 | -61.64032 | 1919 ft | 151 kts | 98° |
| 2026-04-22 20:07 | 16.28332 | -61.62953 | 1719 ft | 152 kts | 98° |
| 2026-04-22 20:07 | 16.28134 | -61.61874 | 1488 ft | 149 kts | 98° |
| 2026-04-22 20:08 | 16.27940 | -61.60821 | 1295 ft | 150 kts | 98° |
| 2026-04-22 20:08 | 16.27742 | -61.59742 | 1078 ft | 151 kts | 97° |
| 2026-04-22 20:08 | 16.27548 | -61.58687 | 834 ft | 147 kts | 98° |
| 2026-04-22 20:08 | 16.27360 | -61.57663 | 664 ft | 143 kts | 97° |
| 2026-04-22 20:09 | 16.27170 | -61.56637 | 501 ft | 146 kts | 97° |
| 2026-04-22 20:09 | 16.26977 | -61.55597 | 312 ft | 145 kts | 97° |
| 2026-04-22 20:09 | 16.26795 | -61.54589 | 67 ft | 137 kts | 97° |
| 2026-04-22 20:09 | 16.26621 | -61.53647 | 31 ft | 120 kts | 100° |
| 2026-04-22 20:10 | 16.26489 | -61.52954 | 31 ft | 77 kts | 101° |
| 2026-04-22 20:10 | 16.26414 | -61.52557 | 34 ft | 44 kts | 101° |
| 2026-04-22 20:10 | 16.26375 | -61.52344 | 42 ft | 12 kts | 101° |
| 2026-04-22 20:10 | 16.26368 | -61.52267 | 43 ft | 10 kts | 75° |
| 2026-04-22 20:11 | 16.26428 | -61.52231 | 43 ft | 10 kts | 12° |
| 2026-04-22 20:11 | 16.26501 | -61.52215 | 42 ft | 12 kts | 11° |
| 2026-04-22 20:11 | 16.26589 | -61.52198 | 35 ft | 10 kts | 11° |
| 2026-04-22 20:11 | 16.26674 | -61.52181 | 29 ft | 15 kts | 6° |
| 2026-04-22 20:12 | 16.26735 | -61.52251 | 28 ft | 15 kts | 281° |
| 2026-04-22 20:12 | 16.26755 | -61.52359 | 28 ft | 15 kts | 281° |
| 2026-04-22 20:12 | 16.26770 | -61.52438 | 28 ft | 10 kts | 281° |
| 2026-04-22 20:12 | 16.26784 | -61.52514 | 28 ft | 11 kts | 281° |
| 2026-04-22 20:13 | 16.26800 | -61.52595 | 28 ft | 11 kts | 281° |
| 2026-04-22 20:13 | 16.26815 | -61.52677 | 28 ft | 11 kts | 280° |
| 2026-04-22 20:13 | 16.26829 | -61.52753 | 28 ft | 9 kts | 285° |
| 2026-04-22 20:13 | 16.26869 | -61.52760 | 28 ft | 5 kts | 43° |
| 2026-04-22 20:14 | 16.26895 | -61.52737 | 28 ft | 5 kts | 33° |
| 2026-04-22 20:14 | 16.26900 | -61.52734 | 28 ft | 0 kts | 32° |